• Join FlightAware (Why Join?)
  • Login
  • US Flag GB Flag 
18:48 EDT


 

Airport Tracker/Info


-or-


 

Live Flight TrackerFlight Track Log ✈ AFL150 ✈ 05-Oct-2013 ✈ UUEE / SVO - MUHA / HAV

Flight Track Log - Related Links

Times and Time Zones

All times are in EDT time to prevent confusion due to time zone crossing. See the AFL150 flight status page for this flight to view local times or setup timezone preferences in your user account.

Time Position Orientation Groundspeed Altitude Reporting Facility
EDT Latitude Longitude Course Direction KTS MPH feet Rate Location/Type
06:16 55.9640 37.3670 255° West 179 206 1,300  Level FlightAware
06:16 55.9600 37.3390 256° West 179 206 2,100 2,400 Climbing FlightAware
06:16 55.9560 37.3100 256° West 180 207 2,900 1,920 Climbing FlightAware
06:17 55.9520 37.2810 256° West 181 208 3,400 1,380 Climbing FlightAware
06:17 55.9500 37.2670 256° West 184 212 3,600 960 Climbing FlightAware
06:17 55.9450 37.2360 254° West 203 234 3,900 780 Climbing FlightAware
06:17 55.9440 37.2190 264° West 212 244 4,000 780 Climbing FlightAware
06:18 55.9460 37.1830 276° West 230 265 4,300 1,020 Climbing FlightAware
06:18 55.9560 37.1470 296° West 251 289 4,700 1,800 Climbing FlightAware
06:18 55.9660 37.1080 295° West 258 297 5,500 2,400 Climbing FlightAware
06:19 55.9770 37.0690 297° West 262 302 6,300 1,860 Climbing FlightAware
06:19 55.9900 37.0180 295° West 283 326 6,900 1,800 Climbing FlightAware
06:19 55.9990 36.9870 297° West 287 330 7,500 2,400 Climbing FlightAware
06:20 56.0130 36.9320 295° West 292 336 8,500 2,100 Climbing FlightAware
06:20 56.0250 36.8870 296° West 302 348 9,100 2,220 Climbing FlightAware
06:20 56.0370 36.8420 296° West 304 350 10,000 2,040 Climbing FlightAware
06:21 56.0580 36.7610 295° West 321 369 11,000 1,680 Climbing FlightAware
06:22 56.0850 36.6590 295° West 346 398 12,100 1,860 Climbing FlightAware
06:22 56.1050 36.5800 294° West 353 406 13,200 2,040 Climbing FlightAware
06:23 56.1330 36.4740 295° West 362 417 14,500 1,920 Climbing FlightAware
06:23 56.1560 36.3920 297° West 363 418 15,500 2,100 Climbing FlightAware
06:23 56.1680 36.3710 316° Northwest 357 411 15,900 2,100 Climbing FlightAware
06:24 56.2130 36.3090 323° Northwest 359 413 17,100 2,040 Climbing FlightAware
06:25 56.2590 36.2410 321° Northwest 364 419 18,300 1,920 Climbing FlightAware
06:25 56.3110 36.1640 321° Northwest 372 428 19,500 1,740 Climbing FlightAware
06:26 56.3580 36.0950 321° Northwest 376 433 20,500 1,680 Climbing FlightAware
06:26 56.4060 36.0260 322° Northwest 382 440 21,500 1,440 Climbing FlightAware
06:27 56.4540 35.9540 320° Northwest 392 451 22,200 1,440 Climbing FlightAware
06:28 56.5110 35.8690 321° Northwest 397 457 23,300 1,620 Climbing FlightAware
06:28 56.5530 35.8060 320° Northwest 399 459 24,100 1,380 Climbing FlightAware
06:29 56.6040 35.7300 321° Northwest 406 467 24,800 1,260 Climbing FlightAware
06:29 56.6540 35.6530 320° Northwest 409 471 25,600 1,260 Climbing FlightAware
06:30 56.7060 35.5760 321° Northwest 415 478 26,300 1,200 Climbing FlightAware
06:31 56.7570 35.4970 320° Northwest 420 483 27,000 1,020 Climbing FlightAware
06:31 56.8160 35.4080 320° Northwest 426 490 27,600 1,020 Climbing FlightAware
06:32 56.8630 35.3360 320° Northwest 430 495 28,200 780 Climbing FlightAware
06:32 56.9170 35.2540 320° Northwest 440 506 28,500 480 Climbing FlightAware
06:33 56.9720 35.1690 320° Northwest 450 518 28,800 600 Climbing FlightAware
06:33 57.0280 35.0820 320° Northwest 458 527 29,200 720 Climbing FlightAware
06:34 57.0850 34.9940 320° Northwest 462 532 29,700 960 Climbing FlightAware
06:35 57.1480 34.8960 320° Northwest 461 531 30,400 1,080 Climbing FlightAware
06:35 57.1980 34.8170 319° Northwest 459 528 31,000 1,080 Climbing FlightAware
06:36 57.2550 34.7280 320° Northwest 460 529 31,600 1,020 Climbing FlightAware
06:36 57.3110 34.6390 319° Northwest 459 528 32,200 900 Climbing FlightAware
06:37 57.3670 34.5500 319° Northwest 457 526 32,700 900 Climbing FlightAware
06:38 57.4230 34.4610 319° Northwest 456 525 33,300 1,020 Climbing FlightAware
06:38 57.4870 34.3590 319° Northwest 452 520 34,000 600 Climbing FlightAware
06:39 57.5340 34.2830 319° Northwest 454 522 34,000  Level FlightAware
06:39 57.5890 34.1940 319° Northwest 451 519 34,000  Level FlightAware
06:40 57.6440 34.1050 319° Northwest 451 519 34,000  Level FlightAware
06:40 57.6990 34.0160 319° Northwest 450 518 34,000  Level FlightAware
06:41 57.7540 33.9260 319° Northwest 450 518 34,000  Level FlightAware
06:42 57.8080 33.8370 319° Northwest 449 517 34,000  Level FlightAware
06:42 57.8630 33.7470 319° Northwest 449 517 34,000  Level FlightAware
06:43 57.9180 33.6560 319° Northwest 450 518 34,000  Level FlightAware
06:43 57.9720 33.5660 319° Northwest 451 519 34,000  Level FlightAware
06:44 58.0270 33.4750 319° Northwest 453 521 34,000  Level FlightAware
06:45 58.0790 33.3880 319° Northwest 454 522 34,000  Level FlightAware
06:45 58.1420 33.2810 318° Northwest 454 522 34,000  Level FlightAware
06:46 58.2150 33.1590 319° Northwest 456 525 34,000  Level FlightAware
06:47 58.2900 33.0280 317° Northwest 457 526 34,000  Level FlightAware
06:48 58.3400 32.9390 317° Northwest 457 526 34,000  Level FlightAware
06:48 58.3880 32.8550 317° Northwest 457 526 34,000  Level FlightAware
06:49 58.4350 32.7700 317° Northwest 457 526 34,000  Level FlightAware
06:49 58.4820 32.6860 317° Northwest 457 526 34,000  Level FlightAware
06:50 58.5310 32.5990 317° Northwest 457 526 34,000  Level FlightAware
06:51 58.5780 32.5150 317° Northwest 457 526 34,000  Level FlightAware
06:51 58.6540 32.2770 302° West 34,000  Level FlightAware
06:52 58.7360 32.1090 313° West 461 531 34,000  Level FlightAware
06:52 58.7810 32.0130 312° West 461 531 34,000  Level FlightAware
06:53 58.8240 31.9190 311° West 461 531 34,000  Level FlightAware
06:54 58.8680 31.8250 312° West 461 531 34,000  Level FlightAware
06:54 58.9340 31.6870 313° West 834 960 34,000  Level FlightAware
06:55 58.9920 31.5640 312° West 462 532 34,000  Level FlightAware
06:55 59.0410 31.4580 312° West 462 532 34,000  Level FlightAware
06:56 59.0860 31.3620 312° West 461 531 34,000  Level FlightAware
06:57 59.1420 31.2430 313° West 460 529 34,000  Level FlightAware
06:57 59.1840 31.1460 310° West 462 532 34,000  Level FlightAware
06:57 59.1970 31.1010 299° West 466 536 34,000  Level FlightAware
06:58 59.2220 30.9760 291° West 469 540 34,000  Level FlightAware
06:58 59.2490 30.8390 291° West 468 539 34,000  Level FlightAware
06:59 59.2780 30.6850 290° West 468 539 34,000  Level FlightAware
07:00 59.3000 30.5660 290° West 469 540 34,000  Level FlightAware
07:00 59.3270 30.4160 289° West 468 539 34,000  Level FlightAware
07:01 59.3540 30.2710 290° West 468 539 34,000  Level FlightAware
07:01 59.3770 30.1400 289° West 468 539 34,000  Level FlightAware
07:02 59.4020 30.0020 290° West 467 537 34,000  Level FlightAware
07:03 59.4250 29.8700 289° West 466 536 34,000  Level FlightAware
07:03 59.4520 29.7140 289° West 464 534 34,000  Level FlightAware
07:04 59.4770 29.5730 289° West 462 532 34,000  Level FlightAware
07:04 59.4970 29.4570 289° West 461 531 34,000  Level FlightAware
07:05 59.5240 29.3010 289° West 458 527 34,000  Level FlightAware
07:05 59.5470 29.1660 289° West 457 526 34,000  Level FlightAware
07:06 59.5690 29.0360 289° West 457 526 34,000  Level FlightAware
07:07 59.5930 28.8940 289° West 457 526 34,000  Level FlightAware
07:07 59.6170 28.7450 288° West 457 526 34,000  Level FlightAware
07:08 59.6370 28.6170 287° West 456 525 34,000  Level FlightAware
07:08 59.6580 28.4690 286° West 453 521 34,000  Level FlightAware
07:09 59.6780 28.3270 286° West 453 521 34,000  Level FlightAware
07:10 59.6970 28.1920 286° West 452 520 34,000  Level FlightAware
07:10 59.7170 28.0570 286° West 451 519 34,000  Level FlightAware
07:11 59.7370 27.9140 286° West 451 519 34,000  Level FlightAware
07:11 59.7520 27.8080 286° West 451 519 34,000  Level FlightAware
07:12 59.7770 27.6200 285° West 451 519 34,000  Level FlightAware
07:13 59.7970 27.4780 286° West 450 518 34,000  Level FlightAware
07:13 59.8170 27.3320 285° West 448 516 34,000  Level FlightAware
07:14 59.8340 27.2020 285° West 447 514 34,000  Level FlightAware
07:14 59.8530 27.0600 285° West 445 512 34,000  Level FlightAware
07:15 59.8720 26.9140 285° West 444 511 34,000  Level FlightAware
07:15 59.8900 26.7780 285° West 443 510 34,000  Level FlightAware
07:16 59.9080 26.6400 285° West 443 510 34,000  Level FlightAware
07:17 59.9260 26.4990 284° West 442 509 34,000  Level FlightAware
07:17 59.9470 26.3630 287° West 442 509 34,000  Level FlightAware
07:18 59.9720 26.2420 292° West 443 510 34,000  Level FlightAware
07:18 60.0100 26.1110 300° West 446 513 34,000  Level FlightAware
07:19 60.0530 25.9970 307° West 450 518 34,000  Level FlightAware
07:19 60.0860 25.9440 321° Northwest 457 526 34,000  Level FlightAware
07:20 60.1570 25.8570 329° Northwest 458 527 34,000  Level FlightAware
07:21 60.2170 25.7810 328° Northwest 458 527 34,000  Level FlightAware
07:21 60.2740 25.7100 328° Northwest 460 529 34,000  Level FlightAware
07:22 60.3430 25.6250 329° Northwest 460 529 34,000  Level FlightAware
07:22 60.4070 25.5430 328° Northwest 459 528 34,000  Level FlightAware
07:23 60.4640 25.4700 328° Northwest 460 529 34,000  Level FlightAware
07:23 60.5280 25.3880 328° Northwest 458 527 34,000  Level FlightAware
07:24 60.5870 25.3130 328° Northwest 457 526 34,000  Level FlightAware
07:25 60.6540 25.2270 328° Northwest 457 526 34,000  Level FlightAware
07:25 60.7190 25.1420 327° Northwest 457 526 34,000  Level FlightAware
07:26 60.7850 25.0570 328° Northwest 456 525 34,000  Level FlightAware
07:26 60.8380 24.9860 327° Northwest 458 527 34,000  Level FlightAware
07:27 60.9020 24.9030 328° Northwest 456 525 34,000 120 Level FlightAware
07:28 60.9690 24.8140 327° Northwest 446 513 34,200 420 Climbing FlightAware
07:28 61.0230 24.7420 327° Northwest 441 507 34,500 540 Climbing FlightAware
07:29 61.0840 24.6610 327° Northwest 441 507 34,900 660 Climbing FlightAware
07:29 61.1380 24.5890 327° Northwest 441 507 35,300 780 Climbing FlightAware
07:30 61.2010 24.5040 327° Northwest 438 504 35,800 540 Climbing FlightAware
07:30 61.2630 24.4200 327° Northwest 437 503 36,000 120 Climbing FlightAware
07:31 61.3170 24.3470 327° Northwest 433 498 36,000  Level FlightAware
07:32 61.3740 24.2690 327° Northwest 432 497 36,000  Level FlightAware
07:32 61.4370 24.1820 327° Northwest 433 498 36,000  Level FlightAware
07:33 61.4930 24.1060 327° Northwest 431 496 36,000  Level FlightAware
07:33 61.5520 24.0250 327° Northwest 432 497 36,000  Level FlightAware
07:34 61.6120 23.9410 326° Northwest 440 506 36,000  Level FlightAware
07:35 61.6750 23.8540 327° Northwest 442 509 36,000  Level FlightAware
07:35 61.7250 23.7830 326° Northwest 440 506 36,000  Level FlightAware
07:36 61.7840 23.7000 326° Northwest 439 505 36,000  Level FlightAware
07:36 61.8490 23.6080 326° Northwest 439 505 36,000  Level FlightAware
07:37 61.9070 23.5250 326° Northwest 439 505 36,000  Level FlightAware
07:37 61.9660 23.4410 326° Northwest 441 507 36,000  Level FlightAware
07:38 62.0270 23.3550 327° Northwest 447 514 36,000  Level FlightAware
07:39 62.0840 23.2720 326° Northwest 451 519 36,000  Level FlightAware
07:39 62.1400 23.1910 326° Northwest 449 517 36,000  Level FlightAware
07:40 62.2000 23.1040 326° Northwest 450 518 36,000  Level FlightAware
07:40 62.2680 23.0050 326° Northwest 451 519 36,000  Level FlightAware
07:41 62.3290 22.9150 326° Northwest 452 520 36,000  Level FlightAware
07:42 62.3930 22.8210 326° Northwest 453 521 36,000  Level FlightAware
07:42 62.4480 22.7390 325° Northwest 452 520 36,000  Level FlightAware
07:43 62.5060 22.6310 319° Northwest 447 514 36,000  Level FlightAware
07:43 62.5600 22.5300 319° Northwest 448 516 36,000  Level FlightAware
07:44 62.6110 22.4350 319° Northwest 448 516 36,000  Level FlightAware
07:44 62.6680 22.3290 320° Northwest 449 517 36,000  Level FlightAware
07:45 62.7150 22.2400 319° Northwest 450 518 36,000  Level FlightAware
07:46 62.7680 22.1390 319° Northwest 454 522 36,000  Level FlightAware
07:46 62.8290 22.0220 319° Northwest 456 525 36,000  Level FlightAware
07:47 62.8890 21.9090 319° Northwest 450 518 36,000  Level FlightAware
07:47 62.9480 21.7950 319° Northwest 457 526 36,000  Level FlightAware
07:48 63.0100 21.6740 318° Northwest 458 527 36,000  Level FlightAware
07:49 63.0670 21.5640 319° Northwest 458 527 36,000  Level FlightAware
07:49 63.1300 21.4400 318° Northwest 458 527 36,000  Level FlightAware
07:50 63.1880 21.3260 318° Northwest 459 528 36,000  Level FlightAware
07:51 63.2390 21.2250 318° Northwest 461 531 36,000  Level FlightAware
07:51 63.2930 21.1170 318° Northwest 461 531 36,000  Level FlightAware
07:52 63.3540 20.9950 318° Northwest 455 524 36,000  Level FlightAware
07:52 63.4130 20.8780 318° Northwest 460 529 36,000  Level FlightAware
07:53 63.4730 20.7560 318° Northwest 460 529 36,000  Level FlightAware
07:54 63.5230 20.6540 318° Northwest 459 528 36,000  Level FlightAware
07:54 63.5640 20.5700 318° Northwest 458 527 36,000  Level FlightAware
07:55 63.6340 20.4260 318° Northwest 456 525 36,000  Level FlightAware
07:55 63.6880 20.3130 317° Northwest 457 526 36,000  Level FlightAware
07:56 63.7440 20.1980 318° Northwest 457 526 36,000  Level FlightAware
07:56 63.8000 20.0800 317° Northwest 458 527 36,000  Level FlightAware
07:57 63.8680 19.9380 317° Northwest 459 528 36,000  Level FlightAware
07:58 63.9270 19.8120 317° Northwest 458 527 36,000  Level FlightAware
07:58 63.9850 19.6890 317° Northwest 457 526 36,000  Level FlightAware
07:59 64.0410 19.5690 317° Northwest 455 524 36,000  Level FlightAware
08:00 64.0940 19.4530 316° Northwest 453 521 36,000  Level FlightAware
08:00 64.1440 19.3460 317° Northwest 454 522 36,000  Level FlightAware
08:01 64.1990 19.2260 317° Northwest 454 522 36,000  Level FlightAware
08:01 64.2530 19.1080 317° Northwest 455 524 36,000  Level FlightAware
08:02 64.3070 18.9880 316° Northwest 455 524 36,000  Level FlightAware
08:03 64.3550 18.8810 316° Northwest 454 522 36,000  Level FlightAware
08:03 64.4100 18.7590 316° Northwest 455 524 36,000  Level FlightAware
08:04 64.4670 18.6310 316° Northwest 455 524 36,000  Level FlightAware
08:04 64.5140 18.5230 315° West 456 525 36,000  Level FlightAware
08:05 64.5680 18.4010 316° Northwest 457 526 36,000  Level FlightAware
08:05 64.6220 18.2780 316° Northwest 456 525 36,000  Level FlightAware
08:06 64.6690 18.1710 316° Northwest 454 522 36,000  Level FlightAware
08:07 64.7180 18.0570 315° West 453 521 36,000  Level FlightAware
08:07 64.8010 17.8660 316° Northwest 454 522 36,000  Level FlightAware
08:08 64.8480 17.7550 315° West 454 522 36,000  Level FlightAware
08:09 64.9020 17.6270 315° West 457 526 36,000  Level FlightAware
08:09 64.9560 17.5000 315° West 459 528 36,000  Level FlightAware
08:10 65.0040 17.3860 315° West 459 528 36,000  Level FlightAware
08:10 65.0530 17.2670 314° West 459 528 36,000  Level FlightAware
08:11 65.1110 17.1270 315° West 459 528 36,000  Level FlightAware
08:11 65.1460 17.0440 315° West 458 527 36,000  Level FlightAware
08:12 65.2120 16.8830 314° West 459 528 36,000  Level FlightAware
08:13 65.2640 16.7560 314° West 459 528 36,000  Level FlightAware
08:13 65.3150 16.6280 314° West 459 528 36,000  Level FlightAware
08:14 65.3660 16.5030 314° West 459 528 36,000  Level FlightAware
08:14 65.4170 16.3760 314° West 461 531 36,000  Level FlightAware
08:15 65.4680 16.2470 314° West 461 531 36,000  Level FlightAware
08:16 65.5200 16.1180 314° West 462 532 36,000  Level FlightAware
08:16 65.5720 15.9860 314° West 457 526 36,000  Level FlightAware
08:17 65.6210 15.8580 313° West 458 527 36,000  Level FlightAware
08:17 65.6730 15.7250 314° West 466 536 36,000  Level FlightAware
08:18 65.7330 15.5690 313° West 467 537 36,000  Level FlightAware
08:19 65.7910 15.4160 313° West 462 532 36,000  Level FlightAware
08:19 65.8430 15.2810 313° West 461 531 36,000  Level FlightAware
08:20 65.8870 15.1650 313° West 461 531 36,000  Level FlightAware
08:20 65.9380 15.0300 313° West 463 533 36,000  Level FlightAware
08:21 65.9890 14.8910 312° West 464 534 36,000  Level FlightAware
08:22 66.0470 14.7360 313° West 466 536 36,000  Level FlightAware
08:22 66.0920 14.6150 313° West 473 544 36,000  Level FlightAware
08:23 66.1430 14.4760 312° West 469 540 36,000  Level FlightAware
08:23 66.1950 14.3330 312° West 469 540 36,000  Level FlightAware
08:24 66.2460 14.1930 312° West 468 539 36,000  Level FlightAware
08:24 66.2960 14.0510 311° West 468 539 36,000  Level FlightAware
08:25 66.3470 13.9080 312° West 469 540 36,000  Level FlightAware
08:26 66.3970 13.7690 312° West 469 540 36,000  Level FlightAware
08:26 66.4480 13.6250 312° West 469 540 36,000  Level FlightAware
08:27 66.4980 13.4810 311° West 470 541 36,000  Level FlightAware
08:27 66.5560 13.3150 311° West 471 542 36,000  Level FlightAware
08:28 66.5980 13.1900 310° West 472 543 36,000  Level FlightAware
08:29 66.6560 13.0220 311° West 472 543 36,000  Level FlightAware
08:29 66.7000 12.8950 311° West 472 543 36,000  Level FlightAware
08:30 66.7500 12.7470 311° West 477 549 36,000  Level FlightAware
08:30 66.8070 12.5770 310° West 476 548 36,000  Level FlightAware
08:31 66.8490 12.4510 310° West 475 547 36,000  Level FlightAware
08:31 66.8970 12.3050 310° West 474 545 36,000  Level FlightAware
08:32 66.9500 12.1440 310° West 475 547 36,000  Level FlightAware
08:33 67.0030 11.9830 310° West 476 548 36,000  Level FlightAware
08:33 67.0510 11.8350 310° West 478 550 36,000  Level FlightAware
08:34 67.1060 11.6620 309° West 478 550 36,000  Level FlightAware
08:35 67.1790 11.4340 310° West 479 551 36,000  Level FlightAware
08:36 67.2360 11.2510 309° West 472 543 36,000  Level FlightAware
08:36 67.2780 11.1110 308° West 472 543 36,000  Level FlightAware
08:37 67.3190 10.9750 308° West 472 543 36,000  Level FlightAware
08:37 67.3610 10.8340 308° West 472 543 36,000  Level FlightAware
08:38 67.4040 10.6930 308° West 472 543 36,000  Level FlightAware
08:39 67.4460 10.5520 308° West 472 543 36,000  Level FlightAware
08:39 67.4850 10.4230 308° West 472 543 36,000  Level FlightAware
08:40 67.5260 10.2850 308° West 472 543 36,000  Level FlightAware
08:40 67.5680 10.1430 308° West 472 543 36,000  Level FlightAware
08:41 67.6090 10.0050 308° West 472 543 36,000  Level FlightAware
08:42 67.6500 9.8670 308° West 472 543 36,000  Level FlightAware
08:42 67.6920 9.7280 309° West 472 543 36,000  Level FlightAware
08:43 67.7330 9.5890 308° West 472 543 36,000  Level FlightAware
08:43 67.7740 9.4500 308° West 472 543 36,000  Level FlightAware
08:44 67.8160 9.3070 308° West 472 543 36,000  Level FlightAware
08:45 67.8570 9.1670 308° West 472 543 36,000  Level FlightAware
08:47 67.8973 8.5747 281° West  Level Estimated
08:48 67.9180 8.2565 280° West  Level Estimated
08:49 67.9380 7.9378 280° West  Level Estimated
08:50 67.9575 7.6186 279° West  Level Estimated
08:51 67.9763 7.2988 279° West  Level Estimated
08:52 67.9945 6.9785 279° West  Level Estimated
08:53 68.0121 6.6578 278° West  Level Estimated
08:54 68.0291 6.3365 278° West  Level Estimated
08:55 68.0454 6.0148 278° West  Level Estimated
08:56 68.0611 5.6926 278° West  Level Estimated
08:57 68.0762 5.3700 277° West  Level Estimated
08:58 68.0907 5.0470 277° West  Level Estimated
08:59 68.1045 4.7236 277° West  Level Estimated
09:00 68.1177 4.3998 276° West  Level Estimated
09:01 68.1302 4.0757 276° West  Level Estimated
09:02 68.1422 3.7512 276° West  Level Estimated
09:03 68.1535 3.4264 275° West  Level Estimated
09:04 68.1641 3.1012 275° West  Level Estimated
09:05 68.1741 2.7758 275° West  Level Estimated
09:06 68.1835 2.4501 275° West  Level Estimated
09:07 68.1922 2.1241 274° West  Level Estimated
09:08 68.2003 1.7979 274° West  Level Estimated
09:09 68.2078 1.4715 274° West  Level Estimated
09:10 68.2146 1.1449 273° West  Level Estimated
09:11 68.2207 0.8181 273° West  Level Estimated
09:12 68.2263 0.4911 273° West  Level Estimated
09:13 68.2312 0.1640 272° West  Level Estimated
09:14 68.2354 -0.1633 272° West  Level Estimated
09:15 68.2390 -0.4906 272° West  Level Estimated
09:16 68.2420 -0.8181 272° West  Level Estimated
09:17 68.2443 -1.1456 271° West  Level Estimated
09:18 68.2459 -1.4732 271° West  Level Estimated
09:19 68.2469 -1.8009 271° West  Level Estimated
09:20 68.2473 -2.1285 270° West  Level Estimated
09:21 68.2470 -2.4562 270° West  Level Estimated
09:22 68.2461 -2.7838 270° West  Level Estimated
09:23 68.2446 -3.1114 269° West  Level Estimated
09:24 68.2424 -3.4389 269° West  Level Estimated
09:25 68.2395 -3.7664 269° West  Level Estimated
09:26 68.2360 -4.0938 269° West  Level Estimated
09:27 68.2319 -4.4211 268° West  Level Estimated
09:28 68.2271 -4.7482 268° West  Level Estimated
09:29 68.2217 -5.0752 268° West  Level Estimated
09:30 68.2156 -5.4020 267° West  Level Estimated
09:31 68.2089 -5.7287 267° West  Level Estimated
09:32 68.2016 -6.0551 267° West  Level Estimated
09:33 68.1936 -6.3814 266° West  Level Estimated
09:34 68.1850 -6.7074 266° West  Level Estimated
09:35 68.1757 -7.0331 266° West  Level Estimated
09:36 68.1658 -7.3586 265° West  Level Estimated
09:37 68.1552 -7.6838 265° West  Level Estimated
09:38 68.1440 -8.0086 265° West  Level Estimated
09:39 68.1322 -8.3332 265° West  Level Estimated
09:40 68.1198 -8.6574 264° West  Level Estimated
09:41 68.1067 -8.9812 264° West  Level Estimated
09:42 68.0930 -9.3047 264° West  Level Estimated
09:43 68.0786 -9.6278 263° West  Level Estimated
09:44 68.0636 -9.9505 263° West  Level Estimated
09:45 68.0480 -10.2727 263° West  Level Estimated
09:46 68.0318 -10.5945 262° West  Level Estimated
09:47 68.0149 -10.9158 262° West  Level Estimated
09:48 67.9974 -11.2367 262° West  Level Estimated
09:49 67.9793 -11.5570 262° West  Level Estimated
09:50 67.9606 -11.8769 261° West  Level Estimated
09:51 67.9412 -12.1962 261° West  Level Estimated
09:52 67.9213 -12.5150 261° West  Level Estimated
09:53 67.9007 -12.8332 260° West  Level Estimated
09:54 67.8795 -13.1509 260° West  Level Estimated
09:55 67.8577 -13.4680 260° West  Level Estimated
09:56 67.8352 -13.7844 260° West  Level Estimated
09:57 67.8122 -14.1003 259° West  Level Estimated
09:58 67.7885 -14.4155 259° West  Level Estimated
09:59 67.7643 -14.7301 259° West  Level Estimated
10:00 67.7394 -15.0441 258° West  Level Estimated
10:01 67.7140 -15.3573 258° West  Level Estimated
10:02 67.6879 -15.6699 258° West  Level Estimated
10:03 67.6612 -15.9817 257° West  Level Estimated
10:04 67.6340 -16.2929 257° West  Level Estimated
10:05 67.6062 -16.6033 257° West  Level Estimated
10:06 67.5777 -16.9130 257° West  Level Estimated
10:07 67.5487 -17.2220 256° West  Level Estimated
10:08 67.5191 -17.5301 256° West  Level Estimated
10:09 67.4889 -17.8375 256° West  Level Estimated
10:10 67.4581 -18.1441 255° West  Level Estimated
10:11 67.4268 -18.4499 255° West  Level Estimated
10:12 67.3948 -18.7549 255° West  Level Estimated
10:13 67.3623 -19.0591 255° West  Level Estimated
10:14 67.3292 -19.3624 254° West  Level Estimated
10:15 67.2956 -19.6649 254° West  Level Estimated
10:16 67.2614 -19.9666 254° West  Level Estimated
10:17 67.2266 -20.2673 253° West  Level Estimated
10:18 67.1913 -20.5672 253° West  Level Estimated
10:19 67.1554 -20.8663 253° West  Level Estimated
10:20 67.1189 -21.1644 253° West  Level Estimated
10:21 67.0819 -21.4616 252° West  Level Estimated
10:22 67.0443 -21.7579 252° West  Level Estimated
10:23 67.0062 -22.0533 252° West  Level Estimated
10:24 66.9676 -22.3477 252° West  Level Estimated
10:25 66.9284 -22.6412 251° West  Level Estimated
10:26 66.8886 -22.9338 251° West  Level Estimated
10:27 66.8483 -23.2254 251° West  Level Estimated
10:28 66.8075 -23.5160 250° West  Level Estimated
10:29 66.7662 -23.8057 250° West  Level Estimated
10:30 66.7243 -24.0944 250° West  Level Estimated
10:31 66.6819 -24.3821 250° West  Level Estimated
10:32 66.6390 -24.6688 249° West  Level Estimated
10:33 66.5956 -24.9545 249° West  Level Estimated
10:34 66.5516 -25.2392 249° West  Level Estimated
10:35 66.5071 -25.5229 249° West  Level Estimated
10:36 66.4621 -25.8056 248° West  Level Estimated
10:37 66.4166 -26.0873 248° West  Level Estimated
10:38 66.3706 -26.3679 248° West  Level Estimated
10:39 66.3241 -26.6475 248° West  Level Estimated
10:40 66.2771 -26.9260 247° West  Level Estimated
10:41 66.2296 -27.2036 247° West  Level Estimated
10:42 66.1816 -27.4800 247° West  Level Estimated
10:43 66.1331 -27.7554 247° West  Level Estimated
10:44 66.0841 -28.0298 246° West  Level Estimated
10:45 66.0347 -28.3031 246° West  Level Estimated
10:46 65.9847 -28.5753 246° West  Level Estimated
10:47 65.9343 -28.8465 246° West  Level Estimated
10:48 65.8834 -29.1165 245° Southwest  Level Estimated
10:49 65.8320 -29.3855 245° Southwest  Level Estimated
10:50 65.7802 -29.6535 245° Southwest  Level Estimated
10:51 65.7279 -29.9203 245° Southwest  Level Estimated
10:52 65.6751 -30.1861 244° Southwest  Level Estimated
10:53 65.6219 -30.4508 244° Southwest  Level Estimated
10:54 65.5682 -30.7144 244° Southwest  Level Estimated
10:55 65.5141 -30.9769 244° Southwest  Level Estimated
10:56 65.4595 -31.2383 243° Southwest  Level Estimated
10:57 65.4044 -31.4987 243° Southwest  Level Estimated
10:58 65.3489 -31.7579 243° Southwest  Level Estimated
10:59 65.2930 -32.0160 243° Southwest  Level Estimated
11:00 65.2366 -32.2731 242° Southwest  Level Estimated
11:01 65.1798 -32.5290 242° Southwest  Level Estimated
11:02 65.1226 -32.7838 242° Southwest  Level Estimated
11:03 65.0649 -33.0376 242° Southwest  Level Estimated
11:04 65.0068 -33.2902 242° Southwest  Level Estimated
11:05 64.9483 -33.5418 241° Southwest  Level Estimated
11:06 64.8893 -33.7922 241° Southwest  Level Estimated
11:07 64.8300 -34.0415 241° Southwest  Level Estimated
11:08 64.7702 -34.2898 241° Southwest  Level Estimated
11:09 64.7100 -34.5369 240° Southwest  Level Estimated
11:10 64.6494 -34.7829 240° Southwest  Level Estimated
11:11 64.5884 -35.0279 240° Southwest  Level Estimated
11:12 64.5269 -35.2717 240° Southwest  Level Estimated
11:13 64.4651 -35.5144 240° Southwest  Level Estimated
11:14 64.4029 -35.7561 239° Southwest  Level Estimated
11:15 64.3403 -35.9966 239° Southwest  Level Estimated
11:16 64.2773 -36.2361 239° Southwest  Level Estimated
11:17 64.2139 -36.4744 239° Southwest  Level Estimated
11:18 64.1501 -36.7117 238° Southwest  Level Estimated
11:19 64.0860 -36.9478 238° Southwest  Level Estimated
11:20 64.0214 -37.1829 238° Southwest  Level Estimated
11:21 63.9565 -37.4169 238° Southwest  Level Estimated
11:22 63.8912 -37.6498 238° Southwest  Level Estimated
11:23 63.8255 -37.8816 237° Southwest  Level Estimated
11:24 63.7595 -38.1124 237° Southwest  Level Estimated
11:25 63.6931 -38.3420 237° Southwest  Level Estimated
11:26 63.6263 -38.5706 237° Southwest  Level Estimated
11:27 63.5592 -38.7981 237° Southwest  Level Estimated
11:28 63.4917 -39.0246 236° Southwest  Level Estimated
11:29 63.4238 -39.2499 236° Southwest  Level Estimated
11:30 63.3556 -39.4742 236° Southwest  Level Estimated
11:31 63.2871 -39.6975 236° Southwest  Level Estimated
11:32 63.2182 -39.9197 236° Southwest  Level Estimated
11:33 63.1489 -40.1408 235° Southwest  Level Estimated
11:34 63.0794 -40.3608 235° Southwest  Level Estimated
11:35 63.0094 -40.5798 235° Southwest  Level Estimated
11:36 62.9392 -40.7978 235° Southwest  Level Estimated
11:37 62.8686 -41.0147 235° Southwest  Level Estimated
11:38 62.7977 -41.2306 234° Southwest  Level Estimated
11:39 62.7264 -41.4454 234° Southwest  Level Estimated
11:40 62.6548 -41.6592 234° Southwest  Level Estimated
11:41 62.5829 -41.8720 234° Southwest  Level Estimated
11:42 62.5107 -42.0837 234° Southwest  Level Estimated
11:43 62.4381 -42.2944 233° Southwest  Level Estimated
11:44 62.3653 -42.5041 233° Southwest  Level Estimated
11:45 62.2921 -42.7127 233° Southwest  Level Estimated
11:46 62.2186 -42.9204 233° Southwest  Level Estimated
11:47 62.1448 -43.1270 233° Southwest  Level Estimated
11:48 62.0707 -43.3326 232° Southwest  Level Estimated
11:49 61.9963 -43.5373 232° Southwest  Level Estimated
11:50 61.9216 -43.7409 232° Southwest  Level Estimated
11:51 61.8466 -43.9435 232° Southwest  Level Estimated
11:52 61.7713 -44.1452 232° Southwest  Level Estimated
11:53 61.6957 -44.3458 232° Southwest  Level Estimated
11:53 64.7260 -51.1230 231° Southwest 442 509 37,000  Level FlightAware
11:54 61.6198 -44.5455 231° Southwest  Level Estimated
11:54 64.6870 -51.2800 240° Southwest 442 509 37,000  Level FlightAware
11:55 64.6500 -51.4270 240° Southwest 443 510 37,000  Level FlightAware
11:55 64.6160 -51.5580 239° Southwest 444 511 37,000  Level FlightAware
11:56 64.5780 -51.7070 239° Southwest 444 511 37,000  Level FlightAware
11:56 64.5430 -51.8450 240° Southwest 443 510 37,000  Level FlightAware
11:57 64.5050 -51.9900 239° Southwest 442 509 37,000  Level FlightAware
11:57 64.4710 -52.1190 239° Southwest 440 506 37,000  Level FlightAware
11:58 64.4290 -52.2810 239° Southwest 439 505 37,000  Level FlightAware
11:59 64.3930 -52.4160 238° Southwest 438 504 37,000  Level FlightAware
11:59 64.3590 -52.5440 238° Southwest 436 502 37,000  Level FlightAware
12:00 64.3220 -52.6820 238° Southwest 436 502 37,000  Level FlightAware
12:00 64.2850 -52.8180 238° Southwest 437 503 37,000  Level FlightAware
12:01 64.2440 -52.9730 239° Southwest 437 503 37,000  Level FlightAware
12:02 64.2010 -53.1240 237° Southwest 438 504 37,000  Level FlightAware
12:02 64.1540 -53.3000 239° Southwest 440 506 37,000  Level FlightAware
12:03 64.1190 -53.4250 237° Southwest 440 506 37,000  Level FlightAware
12:03 64.0830 -53.5540 237° Southwest 442 509 37,000  Level FlightAware
12:04 64.0480 -53.6770 237° Southwest 441 507 37,000  Level FlightAware
12:05 64.0140 -53.7960 237° Southwest 441 507 37,000  Level FlightAware
12:05 63.9790 -53.9190 237° Southwest 441 507 37,000  Level FlightAware
12:06 63.9450 -54.0380 237° Southwest 441 507 37,000  Level FlightAware
12:06 63.9120 -54.1540 237° Southwest 441 507 37,000  Level FlightAware
12:07 63.8780 -54.2730 237° Southwest 441 507 37,000  Level FlightAware
12:08 63.8440 -54.3920 237° Southwest 441 507 37,000  Level FlightAware
12:08 63.8090 -54.5140 237° Southwest 441 507 37,000  Level FlightAware
12:09 63.7750 -54.6320 237° Southwest 441 507 37,000  Level FlightAware
12:09 63.7410 -54.7510 237° Southwest 441 507 37,000  Level FlightAware
12:10 63.7070 -54.8690 237° Southwest 441 507 37,000  Level FlightAware
12:11 63.6730 -54.9870 237° Southwest 441 507 37,000  Level FlightAware
12:11 63.6380 -55.1080 237° Southwest 441 507 37,000  Level FlightAware
12:12 63.6040 -55.2260 237° Southwest 441 507 37,000  Level FlightAware
12:12 63.5690 -55.3470 237° Southwest 441 507 37,000  Level FlightAware
12:13 63.4833 -55.6500 244° Southwest 450 518 37,000  Level Gander Center
12:13 63.5350 -55.4650 237° Southwest 441 507 37,000  Level FlightAware
12:14 63.4000 -55.8500 227° Southwest 440 506 37,000  Level Gander Center
12:15 63.3500 -56.0833 245° Southwest 440 506 37,000  Level Gander Center
12:16 63.2958 -55.8602 217° Southwest  Level Estimated
12:16 63.2667 -56.3167 232° Southwest 440 506 37,000  Level Gander Center
12:17 63.1978 -56.0196 216° Southwest  Level Estimated
12:17 63.2000 -56.5500 238° Southwest 440 506 37,000  Level Gander Center
12:18 63.1442 -56.2654 244° Southwest  Level FlightAware Approximate
12:18 63.1333 -56.7333 231° Southwest 440 506 37,000  Level Gander Center
12:19 63.0500 -56.9667 232° Southwest 440 506 37,000  Level Gander Center
12:20 63.0000 -57.1667 241° Southwest 440 506 37,000  Level Gander Center
12:21 62.9167 -57.3833 230° Southwest 440 506 37,000  Level Gander Center
12:22 62.8500 -57.5833 234° Southwest 430 495 37,000  Level Gander Center
12:24 62.7747 -57.8080 234° Southwest  Level FlightAware Approximate
12:30 62.2833 -59.2500 221° Southwest 240 276 37,000  Level Gander Center
12:31 62.2556 -59.2998 234° Southwest  Level FlightAware Approximate
12:31 62.2333 -59.4333 240° Southwest 430 495 37,000  Level Gander Center
12:32 62.1802 -59.5087 232° Southwest  Level FlightAware Approximate
12:32 62.1500 -59.6167 226° Southwest 430 495 37,000  Level Gander Center
12:33 62.1044 -59.7165 232° Southwest  Level FlightAware Approximate
12:33 62.0667 -59.8000 226° Southwest 430 495 37,000  Level Gander Center
12:34 62.0284 -59.9234 232° Southwest  Level FlightAware Approximate
12:34 62.0000 -60.0167 237° Southwest 430 495 37,000  Level Gander Center
12:35 61.9417 -60.1082 221° Southwest  Level FlightAware Approximate
12:35 61.9000 -60.1500 212° Southwest 430 495 37,000  Level Gander Center
12:36 61.8167 -60.3333 226° Southwest 430 495 37,000  Level Gander Center
12:37 61.7333 -60.5167 226° Southwest 430 495 37,000  Level Gander Center
12:38 61.6500 -60.6833 224° Southwest 440 506 37,000  Level Gander Center
12:39 61.5500 -60.8333 216° Southwest 430 495 37,000  Level Gander Center
12:40 61.4500 -61.0000 219° Southwest 430 495 37,000  Level Gander Center
12:41 61.3667 -61.1833 227° Southwest 440 506 37,000  Level Gander Center
12:42 61.2667 -61.3167 213° Southwest 440 506 37,000  Level Gander Center
12:43 61.1833 -61.5167 229° Southwest 440 506 37,000  Level Gander Center
12:44 61.0833 -61.6667 216° Southwest 440 506 37,000  Level Gander Center
12:45 61.0000 -61.8333 224° Southwest 440 506 37,000  Level Gander Center
12:46 60.9000 -62.0000 219° Southwest 450 518 37,000  Level Gander Center
12:47 60.8000 -62.2000 224° Southwest 450 518 37,000  Level Gander Center
12:48 60.7000 -62.3667 219° Southwest 450 518 37,000  Level Gander Center
12:49 60.6167 -62.5333 224° Southwest 450 518 37,000  Level Gander Center
12:51 60.5000 -63.0167 244° Southwest 440 506 37,000  Level Montreal Center
12:52 60.4500 -63.2833 249° West 440 506 37,000 -420 Level Montreal Center
12:53 60.4000 -63.5000 245° Southwest 440 506 36,200 -540 Descending Montreal Center
12:54 60.3833 -63.7167 261° West 440 506 36,000 -120 Descending Montreal Center
12:55 60.3333 -63.9500 247° West 440 506 36,000  Level Montreal Center
12:56 60.2833 -64.2000 248° West 440 506 36,000  Level Montreal Center
12:57 60.2333 -64.4167 245° Southwest 440 506 36,000  Level Montreal Center
12:58 60.1833 -64.6500 247° West 440 506 36,000  Level Montreal Center
12:59 60.1500 -64.9000 255° West 440 506 36,000  Level Montreal Center
13:00 60.0833 -65.0833 234° Southwest 440 506 36,000  Level Montreal Center
13:01 60.0000 -65.2833 230° Southwest 440 506 36,000  Level Montreal Center
13:02 59.9167 -65.4500 225° Southwest 450 518 36,000  Level Montreal Center
13:03 59.8167 -65.6167 220° Southwest 450 518 36,000  Level Montreal Center
13:04 59.7167 -65.7833 220° Southwest 450 518 36,000  Level Montreal Center
13:05 59.6333 -65.9333 222° Southwest 450 518 36,000  Level Montreal Center
13:06 59.5167 -66.1000 216° Southwest 450 518 36,000  Level Montreal Center
13:07 59.4333 -66.2667 226° Southwest 450 518 36,000  Level Montreal Center
13:08 59.3333 -66.4167 217° Southwest 450 518 36,000  Level Montreal Center
13:09 59.2333 -66.5833 220° Southwest 450 518 36,000  Level Montreal Center
13:10 59.1500 -66.7333 223° Southwest 450 518 36,000  Level Montreal Center
13:11 59.0500 -66.8833 218° Southwest 450 518 36,000  Level Montreal Center
13:12 58.9500 -67.0500 221° Southwest 450 518 36,000  Level Montreal Center
13:13 58.8500 -67.2000 218° Southwest 450 518 36,000  Level Montreal Center
13:14 58.7667 -67.3500 223° Southwest 450 518 36,000  Level Montreal Center
13:15 58.6500 -67.5167 217° Southwest 460 529 36,000  Level Montreal Center
13:16 58.5500 -67.7000 224° Southwest 460 529 36,000  Level Montreal Center
13:17 58.4500 -67.8500 218° Southwest 460 529 36,000  Level Montreal Center
13:18 58.3667 -68.0000 223° Southwest 460 529 36,000  Level Montreal Center
13:19 58.2500 -68.1500 214° Southwest 460 529 36,000  Level Montreal Center
13:20 58.1500 -68.3333 224° Southwest 460 529 36,000  Level Montreal Center
13:21 58.0667 -68.4500 217° Southwest 460 529 36,000  Level Montreal Center
13:22 57.9500 -68.6000 214° Southwest 460 529 36,000  Level Montreal Center
13:23 57.8500 -68.7500 219° Southwest 460 529 36,000  Level Montreal Center
13:24 57.7333 -68.9000 214° Southwest 460 529 36,000  Level Montreal Center
13:25 57.6500 -69.0333 221° Southwest 460 529 36,000  Level Montreal Center
13:26 57.5333 -69.1500 208° Southwest 460 529 36,000  Level Montreal Center
13:27 57.4167 -69.3000 215° Southwest 460 529 36,000  Level Montreal Center
13:28 57.3333 -69.4500 224° Southwest 460 529 36,000  Level Montreal Center
13:29 57.2167 -69.5833 212° Southwest 470 541 36,000  Level Montreal Center
13:30 57.1000 -69.7333 215° Southwest 470 541 36,000  Level Montreal Center
13:31 57.0167 -69.8667 221° Southwest 470 541 36,000  Level Montreal Center
13:32 56.9000 -70.0167 215° Southwest 470 541 36,000  Level Montreal Center
13:33 56.7833 -70.1500 212° Southwest 470 541 36,000  Level Montreal Center
13:34 56.6833 -70.2667 213° Southwest 470 541 36,000  Level Montreal Center
13:35 56.5667 -70.4333 218° Southwest 480 552 36,000  Level Montreal Center
13:36 56.4500 -70.5667 212° Southwest 480 552 36,000  Level Montreal Center
13:37 56.3500 -70.7000 216° Southwest 480 552 36,000  Level Montreal Center
13:38 56.2333 -70.8500 216° Southwest 480 552 36,000  Level Montreal Center
13:39 56.1167 -70.9500 206° Southwest 480 552 36,000  Level Montreal Center
13:40 56.0167 -71.0833 217° Southwest 480 552 36,000  Level Montreal Center
13:41 55.9167 -71.2167 217° Southwest 470 541 36,000  Level Montreal Center
13:42 55.8000 -71.3500 213° Southwest 470 541 36,000  Level Montreal Center
13:43 55.6833 -71.4833 213° Southwest 470 541 36,000  Level Montreal Center
13:44 55.5667 -71.6167 213° Southwest 480 552 36,000  Level Montreal Center
13:45 55.4667 -71.7500 217° Southwest 480 552 36,000  Level Montreal Center
13:46 55.3667 -71.8667 214° Southwest 480 552 36,000  Level Montreal Center
13:47 55.2500 -72.0000 213° Southwest 470 541 36,000  Level Montreal Center
13:48 55.1333 -72.1333 213° Southwest 470 541 36,000  Level Montreal Center
13:49 55.0167 -72.2667 213° Southwest 470 541 36,000  Level Montreal Center
13:50 54.9000 -72.3833 210° Southwest 470 541 36,000  Level Montreal Center
13:51 54.8000 -72.5167 218° Southwest 470 541 36,000  Level Montreal Center
13:52 54.6833 -72.6333 210° Southwest 470 541 36,000  Level Montreal Center
13:53 54.5833 -72.7667 218° Southwest 470 541 36,000  Level Montreal Center
13:54 54.4667 -72.9000 214° Southwest 470 541 36,000  Level Montreal Center
13:55 54.3667 -72.9833 206° Southwest 470 541 36,000  Level Montreal Center
13:56 54.2500 -73.1167 214° Southwest 460 529 36,000  Level Montreal Center
13:57 54.1333 -73.2333 210° Southwest 470 541 36,000  Level Montreal Center
13:58 54.0333 -73.3500 214° Southwest 470 541 36,000  Level Montreal Center
13:59 53.9167 -73.4833 214° Southwest 470 541 36,000  Level Montreal Center
14:00 53.8000 -73.6000 211° Southwest 470 541 36,000  Level Montreal Center
14:01 53.6833 -73.7167 211° Southwest 470 541 36,000  Level Montreal Center
14:02 53.5667 -73.8167 207° Southwest 480 552 36,000  Level Montreal Center
14:03 53.4500 -73.9333 211° Southwest 480 552 36,000  Level Montreal Center
14:04 53.3167 -74.0167 200° South 480 552 36,000  Level Montreal Center
14:05 53.2000 -74.1000 203° Southwest 480 552 36,000  Level Montreal Center
14:06 53.0833 -74.2333 214° Southwest 470 541 36,000  Level Montreal Center
14:07 52.9667 -74.3167 203° Southwest 470 541 36,000  Level Montreal Center
14:08 52.8667 -74.4000 207° Southwest 470 541 36,000 120 Level Montreal Center
14:09 52.7333 -74.4833 201° Southwest 470 541 36,300 660 Climbing Montreal Center
14:10 52.6333 -74.6000 215° Southwest 470 541 37,400 840 Climbing Montreal Center
14:11 52.5167 -74.7000 208° Southwest 480 552 38,000 300 Climbing Montreal Center
14:12 52.3667 -74.7833 199° South 480 552 38,000  Level Montreal Center
14:13 52.2500 -74.9000 211° Southwest 480 552 38,000  Level Montreal Center
14:14 52.1333 -74.9833 204° Southwest 470 541 38,000  Level Montreal Center
14:15 52.0167 -75.0667 204° Southwest 460 529 38,000  Level Montreal Center
14:16 51.9000 -75.1667 208° Southwest 460 529 38,000  Level Montreal Center
14:17 51.7833 -75.2500 204° Southwest 460 529 38,000  Level Montreal Center
14:18 51.6667 -75.3333 204° Southwest 460 529 38,000  Level Montreal Center
14:19 51.5500 -75.4167 204° Southwest 460 529 38,000  Level Montreal Center
14:20 51.4333 -75.5333 212° Southwest 460 529 38,000  Level Montreal Center
14:21 51.3167 -75.6167 204° Southwest 460 529 38,000  Level Montreal Center
14:22 51.2167 -75.7000 208° Southwest 450 518 38,000  Level Montreal Center
14:23 51.1000 -75.7833 204° Southwest 450 518 38,000  Level Montreal Center
14:24 50.9833 -75.8500 200° South 460 529 38,000  Level Montreal Center
14:25 50.8667 -75.9333 204° Southwest 450 518 38,000  Level Montreal Center
14:26 50.7500 -76.0500 212° Southwest 450 518 38,000  Level Montreal Center
14:27 50.6333 -76.1167 200° South 450 518 38,000  Level Montreal Center
14:28 50.5333 -76.2000 208° Southwest 450 518 38,000  Level Montreal Center
14:29 50.4000 -76.2833 202° Southwest 450 518 38,000  Level Montreal Center
14:30 50.3000 -76.3667 208° Southwest 450 518 38,000  Level Montreal Center
14:31 50.1833 -76.4333 200° South 450 518 38,000  Level Montreal Center
14:32 50.0500 -76.5500 209° Southwest 450 518 38,000  Level Montreal Center
14:33 49.9500 -76.6167 203° Southwest 450 518 38,000  Level Montreal Center
14:34 49.8333 -76.7000 205° Southwest 440 506 38,000  Level Montreal Center
14:35 49.7167 -76.7667 200° South 440 506 38,000  Level Montreal Center
14:36 49.6000 -76.8500 205° Southwest 450 518 38,000  Level Montreal Center
14:37 49.5000 -76.9167 203° Southwest 430 495 38,000  Level Montreal Center
14:38 49.3667 -77.0000 202° Southwest 470 541 38,000  Level Montreal Center
14:39 49.2667 -77.0667 204° Southwest 440 506 38,000  Level Montreal Center
14:40 49.1500 -77.1667 209° Southwest 440 506 38,000  Level Montreal Center
14:41 49.0500 -77.2500 209° Southwest 440 506 38,000  Level Montreal Center
14:42 48.9333 -77.3167 201° Southwest 440 506 38,000 -120 Level Montreal Center
14:48 48.2340 -77.7820 201° Southwest 426 490 37,200 -180 Descending FlightAware
14:49 48.1760 -77.8190 203° Southwest 427 491 37,100 -1,020 Descending FlightAware
14:50 48.1120 -77.8590 203° Southwest 435 501 36,100 -1,080 Descending FlightAware
14:50 48.0440 -77.8980 201° Southwest 434 499 36,000 -120 Descending FlightAware
14:51 47.9640 -77.9440 201° Southwest 436 502 36,000  Level FlightAware
14:51 47.9060 -77.9770 201° Southwest 436 502 36,000  Level FlightAware
14:52 47.8360 -78.0190 202° Southwest 433 498 36,000  Level FlightAware
14:53 47.7840 -78.0490 201° Southwest 432 497 36,000  Level FlightAware
14:53 47.6970 -78.1000 202° Southwest 433 498 36,000  Level FlightAware
14:54 47.6280 -78.1390 201° Southwest 433 498 36,000  Level FlightAware
14:54 47.5660 -78.1750 201° Southwest 434 499 36,000  Level FlightAware
14:55 47.4990 -78.2140 201° Southwest 435 501 36,000  Level FlightAware
14:55 47.4460 -78.2440 201° Southwest 436 502 36,000  Level FlightAware
14:56 47.3820 -78.2810 201° Southwest 437 503 36,000  Level FlightAware
14:57 47.3150 -78.3190 201° Southwest 439 505 36,000  Level FlightAware
14:57 47.2450 -78.3590 201° Southwest 441 507 36,000  Level FlightAware
14:58 47.1800 -78.3950 201° Southwest 442 509 36,000  Level FlightAware
14:58 47.1080 -78.4360 201° Southwest 442 509 36,000  Level FlightAware
14:59 47.0460 -78.4710 201° Southwest 442 509 36,000  Level FlightAware
14:59 46.9810 -78.5080 201° Southwest 442 509 36,000  Level FlightAware
15:00 46.9100 -78.5470 201° Southwest 442 509 36,000  Level FlightAware
15:01 46.8450 -78.5840 201° Southwest 442 509 36,000  Level FlightAware
15:01 46.7800 -78.6200 201° Southwest 444 511 36,000  Level FlightAware
15:02 46.7100 -78.6590 201° Southwest 446 513 36,000  Level FlightAware
15:02 46.6440 -78.6950 201° Southwest 447 514 36,000  Level FlightAware
15:03 46.5760 -78.7330 201° Southwest 449 517 36,000  Level FlightAware
15:04 46.5060 -78.7720 201° Southwest 450 518 36,000  Level FlightAware
15:04 46.4360 -78.8100 201° Southwest 451 519 36,000  Level FlightAware
15:05 46.3730 -78.8450 201° Southwest 452 520 36,000  Level FlightAware
15:05 46.3030 -78.8830 201° Southwest 452 520 36,000  Level FlightAware
15:06 46.2320 -78.9220 201° Southwest 451 519 36,000  Level FlightAware
15:06 46.1670 -78.9570 200° South 450 518 36,000  Level FlightAware
15:07 46.0960 -78.9960 201° Southwest 451 519 36,000  Level FlightAware
15:08 46.0270 -79.0330 200° South 450 518 36,000  Level FlightAware
15:08 45.9570 -79.0710 201° Southwest 448 516 36,000  Level FlightAware
15:09 45.8950 -79.1040 200° South 448 516 36,000  Level FlightAware
15:09 45.8240 -79.1420 200° South 449 517 36,000  Level FlightAware
15:10 45.7570 -79.1780 201° Southwest 450 518 36,000  Level FlightAware
15:11 45.6830 -79.2180 201° Southwest 450 518 36,000  Level FlightAware
15:11 45.6220 -79.2500 200° South 449 517 36,000  Level FlightAware
15:12 45.5640 -79.2810 201° Southwest 449 517 36,000  Level FlightAware
15:12 45.4810 -79.3250 200° South 450 518 36,000  Level FlightAware
15:13 45.4140 -79.3610 201° Southwest 450 518 36,000  Level FlightAware
15:14 45.3440 -79.3980 200° South 450 518 36,000  Level FlightAware
15:14 45.2800 -79.4310 200° South 449 517 36,000  Level FlightAware
15:15 45.2220 -79.4620 201° Southwest 449 517 36,000  Level FlightAware
15:15 45.1500 -79.4990 200° South 449 517 36,000  Level FlightAware
15:16 45.0850 -79.5330 200° South 451 519 36,000  Level FlightAware
15:16 45.0140 -79.5710 201° Southwest 450 518 36,000  Level FlightAware
15:17 44.9460 -79.6060 200° South 448 516 36,000  Level FlightAware
15:18 44.8800 -79.6400 200° South 447 514 36,000  Level FlightAware
15:18 44.8000 -79.6810 200° South 446 513 36,000  Level FlightAware
15:19 44.7320 -79.7160 200° South 445 512 36,000  Level FlightAware
15:19 44.6650 -79.7510 200° South 443 510 36,000  Level FlightAware
15:20 44.5890 -79.7930 201° Southwest 439 505 36,000  Level FlightAware
15:21 44.5360 -79.8330 208° Southwest 433 498 36,000  Level FlightAware
15:21 44.4700 -79.8940 213° Southwest 432 497 36,000  Level FlightAware
15:22 44.4110 -79.9480 213° Southwest 431 496 36,000  Level FlightAware
15:22 44.3630 -79.9910 213° Southwest 431 496 36,000  Level FlightAware
15:23 44.3040 -80.0440 213° Southwest 429 494 36,000  Level FlightAware
15:23 44.2460 -80.0950 212° Southwest 429 494 36,000  Level FlightAware
15:24 44.1850 -80.1500 213° Southwest 430 495 36,000  Level FlightAware
15:25 44.1270 -80.2020 213° Southwest 431 496 36,000  Level FlightAware
15:25 44.0640 -80.2580 213° Southwest 432 497 36,000  Level FlightAware
15:26 44.0090 -80.3060 212° Southwest 432 497 36,000  Level FlightAware
15:26 43.9550 -80.3540 213° Southwest 433 498 36,000  Level FlightAware
15:27 43.8900 -80.4110 212° Southwest 433 498 36,000  Level FlightAware
15:28 43.8250 -80.4680 212° Southwest 431 496 36,000  Level FlightAware
15:28 43.7660 -80.5200 212° Southwest 430 495 36,000  Level FlightAware
15:29 43.7150 -80.5650 213° Southwest 429 494 36,000  Level FlightAware
15:29 43.6590 -80.6140 212° Southwest 429 494 36,000  Level FlightAware
15:30 43.5890 -80.6750 212° Southwest 430 495 36,000  Level FlightAware
15:30 43.5430 -80.7150 212° Southwest 430 495 36,000  Level FlightAware
15:31 43.4630 -80.7850 212° Southwest 431 496 36,000  Level FlightAware
15:32 43.4040 -80.8350 212° Southwest 433 498 36,000  Level FlightAware
15:32 43.3430 -80.8880 212° Southwest 435 501 36,000  Level FlightAware
15:33 43.2840 -80.9380 212° Southwest 436 502 36,000  Level FlightAware
15:34 43.2260 -80.9890 213° Southwest 434 499 36,000  Level FlightAware
15:34 43.1640 -81.0420 212° Southwest 435 501 36,000  Level FlightAware
15:35 43.1060 -81.0910 212° Southwest 436 502 36,000  Level FlightAware
15:35 43.0460 -81.1410 211° Southwest 438 504 36,000  Level FlightAware
15:36 42.9790 -81.1840 205° Southwest 442 509 36,000  Level FlightAware
15:36 42.9160 -81.2240 205° Southwest 440 506 36,000  Level FlightAware
15:37 42.8500 -81.2650 204° Southwest 439 505 36,000  Level FlightAware
15:38 42.7860 -81.3040 204° Southwest 442 509 36,000  Level FlightAware
15:38 42.7200 -81.3450 205° Southwest 443 510 36,000  Level FlightAware
15:39 42.6560 -81.3840 204° Southwest 443 510 36,000  Level FlightAware
15:39 42.5900 -81.4250 205° Southwest 441 507 36,000  Level FlightAware
15:40 42.5250 -81.4640 204° Southwest 440 506 36,000  Level FlightAware
15:41 42.4600 -81.5040 204° Southwest 437 503 36,000  Level FlightAware
15:41 42.3830 -81.5510 204° Southwest 434 499 36,000  Level FlightAware
15:42 42.3140 -81.5930 204° Southwest 434 499 36,000  Level FlightAware
15:42 42.2500 -81.6310 204° Southwest 434 499 36,000  Level FlightAware
15:43 42.1950 -81.6650 205° Southwest 434 499 36,000  Level FlightAware
15:44 42.1160 -81.7120 204° Southwest 435 501 36,000  Level FlightAware
15:44 42.0560 -81.7480 204° Southwest 436 502 36,000  Level FlightAware
15:45 41.9880 -81.7890 204° Southwest 436 502 36,000  Level FlightAware
15:45 41.9200 -81.8290 204° Southwest 437 503 36,000  Level FlightAware
15:46 41.8650 -81.8620 204° Southwest 437 503 36,000  Level FlightAware
15:47 41.7860 -81.9090 204° Southwest 437 503 36,000  Level FlightAware
15:47 41.7210 -81.9480 204° Southwest 435 501 36,000  Level FlightAware
15:48 41.6570 -81.9860 204° Southwest 436 502 36,000  Level FlightAware
15:48 41.5880 -82.0270 204° Southwest 438 504 36,000  Level FlightAware
15:49 41.5310 -82.0610 204° Southwest 442 509 36,000  Level FlightAware
15:50 41.4570 -82.1040 204° Southwest 443 510 36,000  Level FlightAware
15:50 41.3910 -82.1430 204° Southwest 443 510 36,000  Level FlightAware
15:51 41.3150 -82.1760 198° South 450 518 36,000  Level FlightAware
15:51 41.2550 -82.1980 195° South 441 507 36,000  Level FlightAware
15:52 41.1870 -82.2230 195° South 437 503 36,000  Level FlightAware
15:53 41.1070 -82.2520 195° South 437 503 36,000  Level FlightAware
15:53 41.0410 -82.2760 195° South 434 499 36,000  Level FlightAware
15:54 40.9720 -82.3000 195° South 431 496 36,000  Level FlightAware
15:54 40.8970 -82.3270 195° South 429 494 36,000  Level FlightAware
15:55 40.8370 -82.3480 195° South 426 490 36,000  Level FlightAware
15:56 40.7680 -82.3720 195° South 425 489 36,000  Level FlightAware
15:56 40.7030 -82.3950 195° South 425 489 36,000  Level FlightAware
15:57 40.6360 -82.4190 195° South 425 489 36,000  Level FlightAware
15:57 40.5680 -82.4430 195° South 425 489 36,000  Level FlightAware
15:58 40.4980 -82.4670 195° South 426 490 36,000  Level FlightAware
15:58 40.4360 -82.4890 195° South 427 491 36,000  Level FlightAware
15:59 40.3690 -82.5120 195° South 428 493 36,000  Level FlightAware
16:00 40.3070 -82.5340 195° South 430 495 36,000  Level FlightAware
16:00 40.2320 -82.5600 195° South 433 498 36,000  Level FlightAware
16:01 40.1660 -82.5810 194° South 436 502 36,000  Level FlightAware
16:01 40.0940 -82.5910 186° South 439 505 36,000  Level FlightAware
16:02 40.0200 -82.5970 184° South 437 503 36,000  Level FlightAware
16:03 39.9570 -82.6010 183° South 437 503 36,000  Level FlightAware
16:03 39.8830 -82.6070 184° South 440 506 36,000  Level FlightAware
16:04 39.8090 -82.6120 183° South 441 507 36,000  Level FlightAware
16:04 39.7430 -82.6160 183° South 442 509 36,000  Level FlightAware
16:05 39.6690 -82.6210 183° South 444 511 36,000  Level FlightAware
16:05 39.6020 -82.6260 183° South 445 512 36,000  Level FlightAware
16:06 39.5250 -82.6310 183° South 446 513 36,000  Level FlightAware
16:07 39.4510 -82.6360 183° South 447 514 36,000  Level FlightAware
16:07 39.3790 -82.6410 183° South 448 516 36,000  Level FlightAware
16:08 39.3120 -82.6450 183° South 449 517 36,000  Level FlightAware
16:08 39.2350 -82.6500 183° South 449 517 36,000  Level FlightAware
16:09 39.1590 -82.6550 183° South 449 517 36,000  Level FlightAware
16:10 39.0890 -82.6600 183° South 449 517 36,000  Level FlightAware
16:10 39.0220 -82.6640 183° South 450 518 36,000  Level FlightAware
16:11 38.9130 -82.6710 183° South 450 518 36,000  Level FlightAware
16:12 38.8350 -82.6770 183° South 449 517 36,000  Level FlightAware
16:12 38.7540 -82.6820 183° South 449 517 36,000  Level FlightAware
16:13 38.6850 -82.6860 183° South 450 518 36,000  Level FlightAware
16:13 38.6070 -82.6920 183° South 450 518 36,000  Level FlightAware
16:14 38.5350 -82.6960 182° South 450 518 36,000  Level FlightAware
16:15 38.4570 -82.7010 183° South 454 522 36,000  Level FlightAware
16:15 38.3810 -82.7060 183° South 457 526 36,000  Level FlightAware
16:16 38.3140 -82.7110 183° South 457 526 36,000  Level FlightAware
16:16 38.2390 -82.7150 182° South 458 527 36,000  Level FlightAware
16:17 38.1507 -82.7211 183° South 460 529 36,000  Level FlightAware ADS-B
16:18 38.0806 -82.7256 183° South 459 528 36,000  Level FlightAware ADS-B
16:18 38.0041 -82.7306 183° South 457 526 36,000  Level FlightAware ADS-B
16:19 37.9440 -82.7340 183° South 455 524 36,000  Level FlightAware
16:19 37.8790 -82.7386 183° South 457 526 36,000  Level FlightAware ADS-B
16:20 37.8126 -82.7429 183° South 455 524 36,000  Level FlightAware ADS-B
16:20 37.7450 -82.7500 185° South 452 520 36,000  Level FlightAware ADS-B
16:21 37.6350 -82.7860 195° South 444 511 36,000  Level FlightAware
16:21 37.5965 -82.8058 202° Southwest 443 510 36,000  Level FlightAware ADS-B
16:22 37.5350 -82.8455 207° Southwest 442 509 36,000  Level FlightAware ADS-B
16:23 37.4745 -82.8856 208° Southwest 442 509 36,000  Level FlightAware ADS-B
16:23 37.4153 -82.9245 208° Southwest 442 509 36,000  Level FlightAware ADS-B
16:24 37.3603 -82.9606 208° Southwest 444 511 36,000  Level FlightAware ADS-B
16:24 37.3055 -82.9965 208° Southwest 445 512 36,000  Level FlightAware ADS-B
16:25 37.2495 -83.0331 207° Southwest 445 512 36,000  Level FlightAware ADS-B
16:25 37.1911 -83.0713 208° Southwest 445 512 36,000  Level FlightAware ADS-B
16:26 37.1301 -83.1110 207° Southwest 443 510 36,000  Level FlightAware ADS-B
16:26 37.0708 -83.1496 207° Southwest 442 509 36,000  Level FlightAware ADS-B
16:27 37.0164 -83.1850 207° Southwest 441 507 36,000  Level FlightAware ADS-B
16:27 36.9603 -83.2213 207° Southwest 442 509 36,000  Level FlightAware ADS-B
16:28 36.9057 -83.2567 207° Southwest 443 510 36,000  Level FlightAware ADS-B
16:28 36.8502 -83.2926 207° Southwest 443 510 36,000  Level FlightAware ADS-B
16:29 36.7904 -83.3312 207° Southwest 444 511 36,000  Level FlightAware ADS-B
16:29 36.7333 -83.3681 207° Southwest 445 512 36,000  Level FlightAware ADS-B
16:30 36.6783 -83.4035 207° Southwest 445 512 36,000  Level FlightAware ADS-B
16:30 36.6212 -83.4401 207° Southwest 446 513 36,000  Level FlightAware ADS-B
16:31 36.5652 -83.4758 207° Southwest 445 512 36,000  Level FlightAware ADS-B
16:31 36.5095 -83.5115 207° Southwest 445 512 36,000  Level FlightAware ADS-B
16:32 36.4542 -83.5468 207° Southwest 443 510 36,000  Level FlightAware ADS-B
16:32 36.3976 -83.5830 207° Southwest 442 509 36,000  Level FlightAware ADS-B
16:33 36.3425 -83.6182 207° Southwest 442 509 36,000  Level FlightAware ADS-B
16:34 36.2777 -83.6594 207° Southwest 443 510 36,000  Level FlightAware ADS-B
16:34 36.2151 -83.6992 207° Southwest 444 511 36,000  Level FlightAware ADS-B
16:35 36.1592 -83.7345 207° Southwest 445 512 36,000  Level FlightAware ADS-B
16:35 36.1028 -83.7702 207° Southwest 446 513 36,000  Level FlightAware ADS-B
16:36 36.0475 -83.8051 207° Southwest 446 513 36,000  Level FlightAware ADS-B
16:36 35.9911 -83.8406 207° Southwest 445 512 36,000  Level FlightAware ADS-B
16:36 35.9534 -83.8637 206° Southwest 446 513 36,000  Level FlightAware ADS-B
16:37 35.9376 -83.8721 203° Southwest 447 514 36,000  Level FlightAware ADS-B
16:37 35.9052 -83.8866 200° South 448 516 36,000  Level FlightAware ADS-B
16:37 35.8575 -83.9036 196° South 451 519 36,000  Level FlightAware ADS-B
16:38 35.7916 -83.9204 192° South 453 521 36,000  Level FlightAware ADS-B
16:38 35.7283 -83.9370 192° South 453 521 36,000  Level FlightAware ADS-B
16:39 35.6660 -83.9528 192° South 453 521 36,000  Level FlightAware ADS-B
16:39 35.5993 -83.9691 191° South 454 522 36,000  Level FlightAware ADS-B
16:40 35.5335 -83.9850 191° South 454 522 36,000  Level FlightAware ADS-B
16:41 35.4513 -84.0050 191° South 454 522 36,000  Level FlightAware ADS-B
16:41 35.3888 -84.0201 191° South 455 524 36,000  Level FlightAware ADS-B
16:42 35.2877 -84.0444 191° South 457 526 36,000  Level FlightAware ADS-B
16:42 35.2199 -84.0607 191° South 458 527 36,000  Level FlightAware ADS-B
16:43 35.1571 -84.0757 191° South 457 526 36,000  Level FlightAware ADS-B
16:43 35.0942 -84.0908 191° South 457 526 36,000  Level FlightAware ADS-B
16:44 35.0305 -84.1060 191° South 457 526 36,000  Level FlightAware ADS-B
16:44 34.9676 -84.1210 191° South 457 526 36,000  Level FlightAware ADS-B
16:45 34.9013 -84.1368 191° South 457 526 36,000  Level FlightAware ADS-B
16:46 34.8381 -84.1519 191° South 456 525 36,000  Level FlightAware ADS-B
16:46 34.7763 -84.1665 191° South 455 524 36,000  Level FlightAware ADS-B
16:47 34.7147 -84.1811 191° South 457 526 36,000  Level FlightAware ADS-B
16:47 34.6193 -84.2037 191° South 458 527 36,000  Level FlightAware ADS-B
16:48 34.5568 -84.2185 191° South 458 527 36,000  Level FlightAware ADS-B
16:48 34.4939 -84.2334 191° South 457 526 36,000  Level FlightAware ADS-B
16:49 34.4314 -84.2480 191° South 456 525 36,000  Level FlightAware ADS-B
16:49 34.3691 -84.2627 191° South 456 525 36,000  Level FlightAware ADS-B
16:50 34.2604 -84.2882 191° South 455 524 36,000  Level FlightAware ADS-B
16:51 34.1850 -84.3060 191° South 455 524 36,000  Level FlightAware
16:51 34.1090 -84.3240 191° South 455 524 36,000  Level FlightAware
16:52 34.0350 -84.3410 191° South 457 526 36,000  Level FlightAware
16:52 33.9811 -84.3535 191° South 457 526 36,000  Level FlightAware ADS-B
16:53 33.9128 -84.3693 191° South 457 526 36,000 -240 Level FlightAware ADS-B
16:53 33.8499 -84.3839 191° South 457 526 35,800 -600 Descending FlightAware ADS-B
16:54 33.7838 -84.3993 191° South 456 525 35,400 -660 Descending FlightAware ADS-B
16:55 33.7144 -84.4153 191° South 452 520 35,100 -360 Descending FlightAware ADS-B
16:55 33.6352 -84.4306 189° South 453 521 35,000 -120 Descending FlightAware ADS-B
16:56 33.5755 -84.4334 182° South 456 525 35,000  Level FlightAware ADS-B
16:56 33.5120 -84.4319 179° South 456 525 35,000  Level FlightAware ADS-B
16:57 33.4417 -84.4309 179° South 456 525 35,000  Level FlightAware ADS-B
16:57 33.3788 -84.4299 179° South 455 524 35,000  Level FlightAware ADS-B
16:58 33.3125 -84.4285 179° South 454 522 35,000  Level FlightAware ADS-B
16:58 33.2310 -84.4270 179° South 455 524 35,000  Level FlightAware
16:59 33.1530 -84.4250 179° South 456 525 35,000  Level FlightAware
17:00 33.0790 -84.4240 179° South 457 526 35,000  Level FlightAware
17:00 33.0080 -84.4220 179° South 458 527 35,000  Level FlightAware
17:01 32.9320 -84.4210 179° South 457 526 35,000  Level FlightAware
17:01 32.8650 -84.4190 179° South 457 526 35,000  Level FlightAware
17:02 32.7840 -84.4180 179° South 457 526 35,000  Level FlightAware
17:02 32.7170 -84.4160 179° South 458 527 35,000  Level FlightAware
17:03 32.6410 -84.4150 179° South 459 528 35,000  Level FlightAware
17:04 32.5620 -84.4130 179° South 460 529 35,000  Level FlightAware
17:04 32.4920 -84.4120 179° South 460 529 35,000  Level FlightAware
17:05 32.4200 -84.4100 179° South 460 529 35,000  Level FlightAware
17:06 32.3240 -84.4080 179° South 461 531 35,000  Level FlightAware
17:06 32.2120 -84.4060 179° South 462 532 35,000  Level FlightAware
17:07 32.1360 -84.4050 179° South 461 531 35,000  Level FlightAware
17:08 32.0490 -84.4030 179° South 459 528 35,000  Level FlightAware
17:08 31.9650 -84.4020 179° South 458 527 35,000  Level FlightAware
17:09 31.8910 -84.3990 178° South 458 527 35,000  Level FlightAware
17:10 31.7850 -84.3970 179° South 456 525 35,000  Level FlightAware
17:10 31.7200 -84.3940 178° South 456 525 35,000  Level FlightAware
17:11 31.6580 -84.3920 178° South 456 525 35,000  Level FlightAware
17:12 31.5540 -84.3930 180° South 455 524 35,000  Level FlightAware
17:12 31.4760 -84.3920 179° South 455 524 35,000  Level FlightAware
17:13 31.4000 -84.3900 179° South 454 522 35,000  Level FlightAware
17:13 31.3310 -84.3890 179° South 454 522 35,000  Level FlightAware
17:14 31.2540 -84.3870 179° South 454 522 35,000  Level FlightAware
17:15 31.1810 -84.3860 179° South 456 525 35,000  Level FlightAware
17:15 31.1100 -84.3850 179° South 457 526 35,000  Level FlightAware
17:16 31.0340 -84.3830 179° South 458 527 35,000  Level FlightAware
17:16 31.0138 -84.3828 180° South 458 527 35,000  Level FlightAware ADS-B (KTLH)
17:16 30.9519 -84.3816 179° South 458 527 35,000  Level FlightAware ADS-B (KTLH)
17:17 30.8841 -84.3803 179° South 458 527 35,000  Level FlightAware ADS-B (KTLH)
17:17 30.8160 -84.3790 179° South 459 528 35,000  Level FlightAware ADS-B (KTLH)
17:18 30.7279 -84.3773 179° South 460 529 35,000  Level FlightAware ADS-B (KTLH)
17:19 30.6610 -84.3740 178° South 460 529 35,000  Level FlightAware
17:19 30.6476 -84.3724 174° South 461 531 35,000  Level FlightAware ADS-B (KTLH)
17:19 30.5868 -84.3602 170° South 462 532 35,000  Level FlightAware ADS-B (KTLH)
17:20 30.5232 -84.3392 164° South 462 532 35,000  Level FlightAware ADS-B (KTLH)
17:20 30.4588 -84.3082 157° South 462 532 35,000  Level FlightAware ADS-B (KTLH)
17:21 30.4029 -84.2728 151° Southeast 460 529 35,000  Level FlightAware ADS-B (KTLH)
17:21 30.3373 -84.2300 151° Southeast 460 529 35,000  Level FlightAware ADS-B (KTLH)
17:22 30.2753 -84.1897 151° Southeast 462 532 35,000  Level FlightAware ADS-B (KTLH)
17:23 30.1992 -84.1401 151° Southeast 462 532 35,000  Level FlightAware ADS-B (KTLH)
17:23 30.1440 -84.1042 151° Southeast 462 532 35,000  Level FlightAware ADS-B (KTLH)
17:24 30.0863 -84.0667 151° Southeast 463 533 35,000  Level FlightAware ADS-B (KTLH)
17:24 30.0098 -84.0170 151° Southeast 464 534 35,000  Level FlightAware ADS-B (KTLH)
17:25 29.9466 -83.9760 151° Southeast 460 529 35,000  Level FlightAware ADS-B (KTLH)
17:25 29.8863 -83.9369 151° Southeast 457 526 35,000  Level FlightAware ADS-B (KTLH)
17:26 29.7970 -83.8790 151° Southeast 458 527 35,000  Level FlightAware
17:27 29.7350 -83.8390 151° Southeast 462 532 35,000  Level FlightAware
17:27 29.6630 -83.7930 151° Southeast 461 531 35,000  Level FlightAware
17:28 29.6060 -83.7560 151° Southeast 459 528 35,000  Level FlightAware
17:29 29.5390 -83.7130 151° Southeast 458 527 35,000  Level FlightAware
17:29 29.4700 -83.6690 151° Southeast 458 527 35,000  Level FlightAware
17:30 29.4100 -83.6310 151° Southeast 459 528 35,000  Level FlightAware
17:30 29.3450 -83.5890 151° Southeast 459 528 35,000  Level FlightAware
17:31 29.2800 -83.5470 151° Southeast 458 527 35,000  Level FlightAware
17:31 29.2140 -83.5050 151° Southeast 459 528 35,000  Level FlightAware
17:32 29.1480 -83.4630 151° Southeast 460 529 35,000  Level FlightAware
17:33 29.0800 -83.4200 151° Southeast 461 531 35,000  Level FlightAware
17:33 29.0160 -83.3790 151° Southeast 462 532 35,000  Level FlightAware
17:34 28.9530 -83.3390 151° Southeast 462 532 35,000  Level FlightAware
17:34 28.8830 -83.2950 151° Southeast 462 532 35,000  Level FlightAware
17:35 28.8230 -83.2570 151° Southeast 463 533 35,000  Level FlightAware
17:35 28.7590 -83.2170 151° Southeast 463 533 35,000  Level FlightAware
17:36 28.6890 -83.1720 151° Southeast 465 535 35,000  Level FlightAware
17:37 28.6270 -83.1330 151° Southeast 466 536 35,000  Level FlightAware
17:37 28.5620 -83.0930 152° Southeast 467 537 35,000  Level FlightAware
17:38 28.4900 -83.0480 151° Southeast 467 537 35,000  Level FlightAware
17:38 28.4290 -83.0090 151° Southeast 467 537 35,000  Level FlightAware
17:39 28.3590 -82.9650 151° Southeast 467 537 35,000  Level FlightAware
17:40 28.2920 -82.9240 152° Southeast 465 535 35,000  Level FlightAware
17:40 28.2260 -82.8820 151° Southeast 465 535 35,000  Level FlightAware
17:41 28.1580 -82.8400 151° Southeast 463 533 35,000  Level FlightAware
17:41 28.0970 -82.8020 151° Southeast 463 533 35,000  Level FlightAware
17:42 28.0280 -82.7590 151° Southeast 463 533 35,000  Level FlightAware
17:43 27.9590 -82.7160 151° Southeast 464 534 35,000  Level FlightAware
17:43 27.8900 -82.6820 156° South 464 534 35,000  Level FlightAware
17:43 27.8500 -82.6780 175° South 462 532 35,000  Level FlightAware
17:44 27.7760 -82.6780 180° South 462 532 35,000  Level FlightAware
17:45 27.6920 -82.6760 179° South 463 533 35,000  Level FlightAware
17:45 27.6260 -82.6720 177° South 465 535 35,000  Level FlightAware
17:46 27.5470 -82.6690 178° South 468 539 35,000  Level FlightAware
17:47 27.4520 -82.6640 177° South 471 542 35,000  Level FlightAware
17:47 27.3800 -82.6610 178° South 472 543 35,000  Level FlightAware
17:48 27.3190 -82.6590 178° South 473 544 35,000  Level FlightAware
17:48 27.2270 -82.6550 178° South 475 547 35,000  Level FlightAware
17:49 27.1550 -82.6520 178° South 476 548 35,000  Level FlightAware
17:49 27.0740 -82.6480 177° South 475 547 35,000  Level FlightAware
17:50 26.9960 -82.6450 178° South 475 547 35,000  Level FlightAware
17:51 26.9200 -82.6410 177° South 468 539 35,000  Level FlightAware
17:51 26.8540 -82.6390 178° South 465 535 35,000  Level FlightAware
17:52 26.7710 -82.6350 178° South 465 535 35,000  Level FlightAware
17:52 26.6870 -82.6310 178° South 465 535 35,000  Level FlightAware
17:53 26.6200 -82.6290 178° South 465 535 35,000  Level FlightAware
17:53 26.5490 -82.6250 177° South 466 536 35,000  Level FlightAware
17:54 26.4440 -82.6210 178° South 467 537 35,000  Level FlightAware
17:55 26.3470 -82.6170 178° South 469 540 35,000  Level FlightAware
17:55 26.2800 -82.6140 178° South 479 551 35,000  Level FlightAware
17:56 26.1800 -82.6100 178° South 479 551 35,000  Level FlightAware
17:57 26.1170 -82.6060 177° South 480 552 35,000  Level FlightAware
17:57 26.0400 -82.6040 179° South 480 552 35,000  Level FlightAware
17:58 25.9290 -82.5980 177° South 480 552 35,000  Level FlightAware
17:59 25.8610 -82.5940 177° South 480 552 35,000  Level FlightAware
17:59 25.8200 -82.5940 180° South 592 681 35,000  Level FlightAware
18:00 25.7380 -82.5910 178° South 468 539 35,000  Level FlightAware
18:00 25.6580 -82.5880 178° South 470 541 35,000  Level FlightAware
18:01 25.5700 -82.5840 178° South 470 541 35,000  Level FlightAware
18:01 25.5090 -82.5810 177° South 470 541 35,000  Level FlightAware
18:02 25.4020 -82.5760 178° South 470 541 35,000  Level FlightAware
18:03 25.2940 -82.5720 178° South 469 540 35,000  Level FlightAware
18:03 25.2180 -82.5690 178° South 469 540 35,000 -300 Level FlightAware
18:04 25.1410 -82.5660 178° South 469 540 34,700 -660 Descending FlightAware
18:05 25.0780 -82.5630 178° South 467 537 34,300 -1,020 Descending FlightAware
18:05 24.9540 -82.5580 178° South 469 540 33,300 -1,260 Descending FlightAware
18:06 24.8780 -82.5550 178° South 463 533 32,400 -1,620 Descending FlightAware
18:07 24.8130 -82.5520 178° South 453 521 31,600 -960 Descending FlightAware
18:07 24.7500 -82.5490 178° South 452 520 31,400 -1,440 Descending FlightAware
18:08 24.6600 -82.5460 178° South 433 498 29,800 -1,320 Descending FlightAware
18:08 24.5970 -82.5420 177° South 433 498 29,800  Level FlightAware
18:09 24.5360 -82.5390 177° South 433 498 29,800  Level FlightAware
18:10 24.4750 -82.5350 177° South 433 498 29,800  Level FlightAware
18:10 24.4140 -82.5320 177° South 433 498 29,800  Level FlightAware
18:11 24.3520 -82.5280 177° South 433 498 29,800  Level FlightAware
18:11 24.2950 -82.5250 177° South 433 498 29,800 -4,140 Level FlightAware
18:12 24.1231 -82.5264 177° South 417 480 23,200 -4,320 Descending Miami Center
18:13 24.0167 -82.5239 179° South 405 466 21,100 -2,100 Descending Miami Center
18:15 23.8792 -82.4994 173° South  Level FlightAware Approximate
18:22 23.0294 -82.4000 180° South  Level FlightAware Approximate
18:23 22.9891 -82.4091 180° South  Level Estimated
18:24 22.9891 -82.4091 180° South  Level Estimated
18:25 22.9891 -82.4091 180° South  Level Estimated
18:26 22.9891 -82.4091 180° South  Level Estimated
18:27 22.9891 -82.4091 180° South  Level Estimated
18:28 22.9891 -82.4091 180° South  Level Estimated
18:29 22.9891 -82.4091 180° South  Level Estimated
18:30 22.9891 -82.4091 180° South  Level Estimated
18:31 22.9891 -82.4091 180° South  Level Estimated
18:32 22.9891 -82.4091 180° South  Level Estimated
18:33 22.9891 -82.4091 180° South  Level Estimated
18:34 22.9891 -82.4091 180° South  Level Estimated
18:35 22.9891 -82.4091 180° South  Level Estimated
18:36 22.9891 -82.4091 180° South  Level Estimated
18:37 22.9891 -82.4091 180° South  Level Estimated
18:38 22.9891 -82.4091 180° South  Level Estimated
18:39 22.9891 -82.4091 180° South  Level Estimated
18:40 22.9891 -82.4091 180° South  Level Estimated
18:41 22.9891 -82.4091 180° South  Level Estimated
18:42 22.9891 -82.4091 180° South  Level Estimated
18:43 22.9891 -82.4091 180° South  Level Estimated
18:44 22.9891 -82.4091 180° South  Level Estimated
18:45 22.9891 -82.4091 180° South  Level Estimated